Terminal Aerodrome Forecast
Issued by NWS

Home | Current Version | Previous Version | Text Only | Print | Product List | Glossary Off
Versions: 1 2 3 4 5 6 7 8 9 10 11 12 13 14

000
FTUS43 KMPX 021720
TAFRWF
TAF
KRWF 021720Z 0218/0318 19010G16KT P6SM FEW250
     FM030100 17008KT P6SM SCT110
     FM031100 18008KT P6SM VCSH SCT040 BKN080 PROB30 0314/0318 5SM
      SHRA BKN040=

USA.gov is the U.S. government's official web portal to all federal, state and local government web resources and services.